createdAt,value
2018-10-17T00:00:06.160Z,10.00
2018-10-17T00:01:41.775Z,9.00
2018-10-17T00:03:17.434Z,9.00
2018-10-17T00:04:53.761Z,9.40
2018-10-17T00:06:29.728Z,9.80
2018-10-17T00:08:05.139Z,6.20
2018-10-17T00:09:40.658Z,10.00
2018-10-17T00:11:17.256Z,9.20
2018-10-17T00:12:52.823Z,9.80
2018-10-17T00:14:28.054Z,7.00
2018-10-17T00:16:03.562Z,9.20
2018-10-17T00:17:43.925Z,9.00
2018-10-17T00:19:21.001Z,8.20
2018-10-17T00:20:56.613Z,6.40
2018-10-17T00:22:31.850Z,6.00
2018-10-17T00:24:07.558Z,6.40
2018-10-17T00:25:43.322Z,6.00
2018-10-17T00:27:18.629Z,4.00
2018-10-17T00:28:54.044Z,6.20
2018-10-17T00:30:29.232Z,6.80
2018-10-17T00:32:04.758Z,5.20
2018-10-17T00:33:41.311Z,6.00
2018-10-17T00:35:17.485Z,4.40
2018-10-17T00:36:53.143Z,4.00
2018-10-17T00:38:28.445Z,6.20
2018-10-17T00:40:05.130Z,6.20
2018-10-17T00:41:40.851Z,5.60
2018-10-17T00:43:16.640Z,4.40
2018-10-17T00:44:54.270Z,2.20
2018-10-17T00:46:29.796Z,6.60
2018-10-17T00:48:05.331Z,5.20
2018-10-17T00:49:40.671Z,7.00
2018-10-17T00:51:16.760Z,4.80
2018-10-17T00:52:52.727Z,5.60
2018-10-17T00:54:28.374Z,6.00
2018-10-17T00:56:04.279Z,4.00
2018-10-17T00:57:39.452Z,4.80
2018-10-17T00:59:15.979Z,6.00
2018-10-17T01:00:51.476Z,5.20
2018-10-17T01:02:26.751Z,4.00
2018-10-17T01:04:02.887Z,4.40
2018-10-17T01:05:38.367Z,4.40
2018-10-17T01:07:13.946Z,6.80
2018-10-17T01:08:49.374Z,5.60
2018-10-17T01:10:24.953Z,4.40
2018-10-17T01:12:00.788Z,6.00
2018-10-17T01:13:35.826Z,4.00
2018-10-17T01:15:11.985Z,6.00
2018-10-17T01:16:47.122Z,4.00
2018-10-17T01:18:22.210Z,6.20
2018-10-17T01:19:57.531Z,6.00
2018-10-17T01:21:33.112Z,4.80
2018-10-17T01:23:08.899Z,6.00
2018-10-17T01:24:45.234Z,3.60
2018-10-17T01:26:21.028Z,2.60
2018-10-17T01:28:01.115Z,4.40
2018-10-17T01:29:36.534Z,7.00
2018-10-17T01:31:12.504Z,6.00
2018-10-17T01:32:47.833Z,6.00
2018-10-17T01:34:23.693Z,6.00
2018-10-17T01:35:58.891Z,5.60
2018-10-17T01:37:34.529Z,5.20
2018-10-17T01:39:11.331Z,3.60
2018-10-17T01:40:46.816Z,6.80
2018-10-17T01:42:22.594Z,7.00
2018-10-17T01:43:57.921Z,6.20
2018-10-17T01:45:33.251Z,8.00
2018-10-17T01:47:08.796Z,6.60
2018-10-17T01:48:44.359Z,5.60
2018-10-17T01:50:20.260Z,3.00
2018-10-17T01:51:55.534Z,1.00
2018-10-17T01:53:31.341Z,6.20
2018-10-17T01:55:07.666Z,6.60
2018-10-17T01:56:43.033Z,6.80
2018-10-17T01:58:19.808Z,7.40
2018-10-17T01:59:55.111Z,6.00
2018-10-17T02:01:32.661Z,6.80
2018-10-17T02:03:07.997Z,3.80
2018-10-17T02:04:43.522Z,3.20
2018-10-17T02:06:19.416Z,7.00
2018-10-17T02:07:54.712Z,6.80
2018-10-17T02:09:31.352Z,6.60
2018-10-17T02:11:07.642Z,7.00
2018-10-17T02:12:43.285Z,6.40
2018-10-17T02:14:18.283Z,7.40
2018-10-17T02:15:54.647Z,4.00
2018-10-17T02:17:29.754Z,6.60
2018-10-17T02:19:04.884Z,7.00
2018-10-17T02:20:40.917Z,6.40
2018-10-17T02:22:16.502Z,1.00
2018-10-17T02:23:51.600Z,6.80
2018-10-17T02:25:26.722Z,5.60
2018-10-17T02:27:01.915Z,6.00
2018-10-17T02:28:37.784Z,2.20
2018-10-17T02:30:14.567Z,6.40
2018-10-17T02:31:50.043Z,4.40
2018-10-17T02:33:25.259Z,7.40
2018-10-17T02:35:05.844Z,4.80
2018-10-17T02:36:41.320Z,4.00
2018-10-17T02:38:16.692Z,5.20
2018-10-17T02:39:51.904Z,6.00
2018-10-17T02:41:28.243Z,5.20
2018-10-17T02:43:03.902Z,3.80
2018-10-17T02:44:39.240Z,7.00
2018-10-17T02:46:14.296Z,7.00
2018-10-17T02:47:49.368Z,7.00
2018-10-17T02:49:25.728Z,6.00
2018-10-17T02:51:01.579Z,3.40
2018-10-17T02:52:42.318Z,0.60
2018-10-17T02:54:17.502Z,3.60
2018-10-17T02:55:52.914Z,7.00
2018-10-17T02:57:28.136Z,6.00
2018-10-17T02:59:05.065Z,6.00
2018-10-17T03:00:40.365Z,6.80
2018-10-17T03:02:15.517Z,6.40
2018-10-17T03:03:50.841Z,6.00
2018-10-17T03:05:26.034Z,6.20
2018-10-17T03:07:01.876Z,8.60
2018-10-17T03:08:37.548Z,6.00
2018-10-17T03:10:12.617Z,7.00
2018-10-17T03:11:48.084Z,6.60
2018-10-17T03:13:23.383Z,6.60
2018-10-17T03:14:59.332Z,2.20
2018-10-17T03:16:34.301Z,4.80
2018-10-17T03:18:09.512Z,8.20
2018-10-17T03:19:44.802Z,6.40
2018-10-17T03:21:20.147Z,6.60
2018-10-17T03:22:55.893Z,6.00
2018-10-17T03:24:31.013Z,6.80
2018-10-17T03:26:06.424Z,7.00
2018-10-17T03:27:41.816Z,4.40
2018-10-17T03:29:17.145Z,5.60
2018-10-17T03:30:55.649Z,4.40
2018-10-17T03:32:32.464Z,6.00
2018-10-17T03:34:10.000Z,7.00
2018-10-17T03:35:45.296Z,6.00
2018-10-17T03:37:20.366Z,1.00
2018-10-17T03:38:55.673Z,6.40
2018-10-17T03:40:33.244Z,7.40
2018-10-17T03:42:09.221Z,6.80
2018-10-17T03:43:44.670Z,8.00
2018-10-17T03:45:20.577Z,8.20
2018-10-17T03:46:56.032Z,6.00
2018-10-17T03:48:32.419Z,6.00
2018-10-17T03:50:08.200Z,7.00
2018-10-17T03:51:44.036Z,3.20
2018-10-17T03:53:23.449Z,9.80
2018-10-17T03:54:58.737Z,13.40
2018-10-17T03:56:36.267Z,21.60
2018-10-17T03:58:11.735Z,7.80
2018-10-17T03:59:46.949Z,7.40
2018-10-17T04:01:24.486Z,10.80
2018-10-17T04:03:00.033Z,9.60
2018-10-17T04:04:37.861Z,7.40
2018-10-17T04:06:15.067Z,6.20
2018-10-17T04:07:51.032Z,7.00
2018-10-17T04:09:26.753Z,7.00
2018-10-17T04:11:02.335Z,9.00
2018-10-17T04:12:37.738Z,6.20
2018-10-17T04:14:12.912Z,4.00
2018-10-17T04:15:48.221Z,9.00
2018-10-17T04:17:25.157Z,4.40
2018-10-17T04:19:03.867Z,3.40
2018-10-17T04:20:39.573Z,6.00
2018-10-17T04:22:15.379Z,7.00
2018-10-17T04:23:51.921Z,10.00
2018-10-17T04:25:30.243Z,6.40
2018-10-17T04:27:05.540Z,7.40
2018-10-17T04:28:40.699Z,9.00
2018-10-17T04:30:17.380Z,9.00
2018-10-17T04:31:53.591Z,8.60
2018-10-17T04:33:29.156Z,9.60
2018-10-17T04:35:04.504Z,9.00
2018-10-17T04:36:40.265Z,8.20
2018-10-17T04:38:17.424Z,6.00
2018-10-17T04:39:53.045Z,9.80
2018-10-17T04:41:28.292Z,6.20
2018-10-17T04:43:04.159Z,9.40
2018-10-17T04:44:39.544Z,7.00
2018-10-17T04:46:15.270Z,10.00
2018-10-17T04:47:51.116Z,9.20
2018-10-17T04:49:27.462Z,9.60
2018-10-17T04:51:05.363Z,9.40
2018-10-17T04:52:41.044Z,9.80
2018-10-17T04:54:17.231Z,11.20
2018-10-17T04:55:53.014Z,12.80
2018-10-17T04:57:28.367Z,7.00
2018-10-17T04:59:03.667Z,9.00
2018-10-17T05:00:40.314Z,7.00
2018-10-17T05:02:17.531Z,8.80
2018-10-17T05:03:54.160Z,8.60
2018-10-17T05:05:29.667Z,7.40
2018-10-17T05:07:09.356Z,9.60
2018-10-17T05:08:44.973Z,8.20
2018-10-17T05:10:20.366Z,9.80
2018-10-17T05:11:56.146Z,9.20
2018-10-17T05:13:32.895Z,7.00
2018-10-17T05:15:09.334Z,7.40
2018-10-17T05:16:44.652Z,10.40
2018-10-17T05:18:20.283Z,9.00
2018-10-17T05:19:58.340Z,8.60
2018-10-17T05:21:34.017Z,10.80
2018-10-17T05:23:09.402Z,10.00
2018-10-17T05:24:44.968Z,9.80
2018-10-17T05:26:21.750Z,10.80
2018-10-17T05:27:57.387Z,9.40
2018-10-17T05:29:32.498Z,7.40
2018-10-17T05:31:07.934Z,10.00
2018-10-17T05:32:43.066Z,9.00
2018-10-17T05:34:19.276Z,7.00
2018-10-17T05:35:54.555Z,4.00
2018-10-17T05:37:29.992Z,10.00
2018-10-17T05:39:06.105Z,9.80
2018-10-17T05:40:41.718Z,9.60
2018-10-17T05:42:18.466Z,10.00
2018-10-17T05:43:54.849Z,8.20
2018-10-17T05:45:31.087Z,9.60
2018-10-17T05:47:07.124Z,11.20
2018-10-17T05:48:47.276Z,10.40
2018-10-17T05:50:23.356Z,4.80
2018-10-17T05:51:59.174Z,9.60
2018-10-17T05:53:34.676Z,8.20
2018-10-17T05:55:10.911Z,12.00
2018-10-17T05:56:48.105Z,10.80
2018-10-17T05:58:24.890Z,9.00
2018-10-17T06:00:01.434Z,9.60
2018-10-17T06:03:24.401Z,12.80
2018-10-17T06:06:42.426Z,13.80
2018-10-17T06:08:18.380Z,13.00
2018-10-17T06:09:57.729Z,12.40
2018-10-17T06:11:35.181Z,11.60
2018-10-17T06:13:11.448Z,10.40
2018-10-17T06:14:50.278Z,12.00
2018-10-17T06:16:30.280Z,12.40
2018-10-17T06:18:10.852Z,10.80
2018-10-17T06:19:49.354Z,11.60
2018-10-17T06:21:26.843Z,12.00
2018-10-17T06:23:02.094Z,7.80
2018-10-17T06:24:39.040Z,9.40
2018-10-17T06:26:16.211Z,10.00
2018-10-17T06:27:53.730Z,3.40
2018-10-17T06:29:29.543Z,12.20
2018-10-17T06:31:05.598Z,10.00
2018-10-17T06:32:42.439Z,11.00
2018-10-17T06:34:18.799Z,12.00
2018-10-17T06:35:55.712Z,8.60
2018-10-17T06:37:34.030Z,9.60
2018-10-17T06:39:11.725Z,11.40
2018-10-17T06:40:48.696Z,11.20
2018-10-17T06:42:26.835Z,10.40
2018-10-17T06:44:04.335Z,12.00
2018-10-17T06:45:41.192Z,11.20
2018-10-17T06:47:17.488Z,8.20
2018-10-17T06:48:52.777Z,10.00
2018-10-17T06:50:28.700Z,11.20
2018-10-17T06:52:05.233Z,12.00
2018-10-17T06:53:41.439Z,10.80
2018-10-17T06:55:19.926Z,12.00
2018-10-17T06:56:56.429Z,12.60
2018-10-17T06:58:34.243Z,12.00
2018-10-17T07:00:10.763Z,12.60
2018-10-17T07:01:47.498Z,3.00
2018-10-17T07:03:30.699Z,10.80
2018-10-17T07:05:07.781Z,12.20
2018-10-17T07:06:47.331Z,9.40
2018-10-17T07:08:24.553Z,9.00
2018-10-17T07:10:00.655Z,12.00
2018-10-17T07:11:37.242Z,7.40
2018-10-17T07:13:13.349Z,11.00
2018-10-17T07:16:32.745Z,11.60
2018-10-17T07:18:15.011Z,11.60
2018-10-17T07:19:51.227Z,13.00
2018-10-17T07:21:30.629Z,12.60
2018-10-17T07:23:08.655Z,10.80
2018-10-17T07:24:47.265Z,9.40
2018-10-17T07:26:30.974Z,11.20
2018-10-17T07:28:08.740Z,10.20
2018-10-17T07:29:44.644Z,13.80
2018-10-17T07:31:21.083Z,12.60
2018-10-17T07:32:58.130Z,13.00
2018-10-17T07:34:33.877Z,8.00
2018-10-17T07:36:15.245Z,13.40
2018-10-17T07:37:55.052Z,13.00
2018-10-17T07:39:31.285Z,16.80
2018-10-17T07:41:07.806Z,12.20
2018-10-17T07:42:44.953Z,12.20
2018-10-17T07:44:22.439Z,10.60
2018-10-17T07:45:59.346Z,10.80
2018-10-17T07:47:35.289Z,10.80
2018-10-17T07:49:11.482Z,12.20
2018-10-17T07:50:47.412Z,12.40
2018-10-17T07:52:23.975Z,13.40
2018-10-17T07:54:00.094Z,14.20
2018-10-17T07:55:36.654Z,12.00
2018-10-17T07:57:14.800Z,10.60
2018-10-17T07:58:51.155Z,13.60
2018-10-17T08:00:26.931Z,13.20
2018-10-17T08:02:05.628Z,12.00
2018-10-17T08:03:45.198Z,13.20
2018-10-17T08:05:24.412Z,15.00
2018-10-17T08:07:01.651Z,12.00
2018-10-17T08:08:38.024Z,14.60
2018-10-17T08:10:15.160Z,14.60
2018-10-17T08:11:52.235Z,12.60
2018-10-17T08:14:00.810Z,11.60
2018-10-17T08:15:40.704Z,11.80
2018-10-17T08:17:16.653Z,13.00
2018-10-17T08:18:53.444Z,12.40
2018-10-17T08:20:29.206Z,12.40
2018-10-17T08:22:06.718Z,11.60
2018-10-17T08:23:43.597Z,10.80
2018-10-17T08:25:19.460Z,10.00
2018-10-17T08:26:55.684Z,10.00
2018-10-17T08:28:36.378Z,9.40
2018-10-17T08:30:15.875Z,7.20
2018-10-17T08:31:52.816Z,9.40
2018-10-17T08:33:30.599Z,9.00
2018-10-17T08:35:09.392Z,9.80
2018-10-17T08:36:50.254Z,9.80
2018-10-17T08:38:27.950Z,10.00
2018-10-17T08:40:04.841Z,11.00
2018-10-17T08:41:45.021Z,9.60
2018-10-17T08:43:26.071Z,10.00
2018-10-17T08:45:04.781Z,9.20
2018-10-17T08:46:41.984Z,1.00
2018-10-17T08:48:19.694Z,8.60
2018-10-17T08:49:59.450Z,8.80
2018-10-17T08:51:35.827Z,10.20
2018-10-17T08:53:12.440Z,9.40
2018-10-17T08:54:50.750Z,10.00
2018-10-17T08:56:27.498Z,9.60
2018-10-17T08:58:03.909Z,8.20
2018-10-17T08:59:42.198Z,7.00
2018-10-17T09:01:18.914Z,10.20
2018-10-17T09:02:55.899Z,9.80
2018-10-17T09:04:35.110Z,10.80
2018-10-17T09:06:14.047Z,7.80
2018-10-17T09:07:54.949Z,6.80
2018-10-17T09:09:32.246Z,9.20
2018-10-17T09:11:08.315Z,8.80
2018-10-17T09:12:45.171Z,8.00
2018-10-17T09:14:24.761Z,8.80
2018-10-17T09:16:01.387Z,9.80
2018-10-17T09:17:40.600Z,9.80
2018-10-17T09:19:16.603Z,9.00
2018-10-17T09:21:00.845Z,8.60
2018-10-17T09:22:36.415Z,9.20
2018-10-17T09:24:13.569Z,10.00
2018-10-17T09:25:50.384Z,8.60
2018-10-17T09:27:26.748Z,8.00
2018-10-17T09:29:05.936Z,8.20
2018-10-17T09:30:43.908Z,5.20
2018-10-17T09:32:20.645Z,9.60
2018-10-17T09:33:58.472Z,9.00
2018-10-17T09:35:39.573Z,9.40
2018-10-17T09:37:18.276Z,9.40
2018-10-17T09:38:53.898Z,8.40
2018-10-17T09:40:29.640Z,7.20
2018-10-17T09:42:05.484Z,8.00
2018-10-17T09:43:42.271Z,6.00
2018-10-17T09:45:18.418Z,8.60
2018-10-17T09:46:54.633Z,8.60
2018-10-17T09:48:30.509Z,8.80
2018-10-17T09:50:07.041Z,9.60
2018-10-17T09:51:44.900Z,8.60
2018-10-17T09:53:24.592Z,9.80
2018-10-17T09:55:01.565Z,9.40
2018-10-17T09:56:39.798Z,8.80
2018-10-17T09:58:16.663Z,9.00
2018-10-17T09:59:56.339Z,10.00
2018-10-17T10:01:39.051Z,12.00
2018-10-17T10:03:15.345Z,9.20
2018-10-17T10:04:55.381Z,8.80
2018-10-17T10:06:32.569Z,6.60
2018-10-17T10:08:09.838Z,8.60
2018-10-17T10:09:46.243Z,8.80
2018-10-17T10:11:22.260Z,9.60
2018-10-17T10:12:57.795Z,7.20
2018-10-17T10:14:34.623Z,7.60
2018-10-17T10:16:10.704Z,7.80
2018-10-17T10:17:46.655Z,6.60
2018-10-17T10:19:22.500Z,6.60
2018-10-17T10:21:00.063Z,2.00
2018-10-17T10:22:41.285Z,6.20
2018-10-17T10:24:19.499Z,6.80
2018-10-17T10:25:59.735Z,7.00
2018-10-17T10:27:37.616Z,8.40
2018-10-17T10:29:14.310Z,7.80
2018-10-17T10:30:51.229Z,8.60
2018-10-17T10:32:27.651Z,8.00
2018-10-17T10:34:04.401Z,8.80
2018-10-17T10:35:48.787Z,6.40
2018-10-17T10:37:27.351Z,7.20
2018-10-17T10:39:05.250Z,8.00
2018-10-17T10:40:42.372Z,6.40
2018-10-17T10:42:19.224Z,7.40
2018-10-17T10:43:55.606Z,8.00
2018-10-17T10:45:34.647Z,6.00
2018-10-17T10:47:13.887Z,6.00
2018-10-17T10:48:50.206Z,5.20
2018-10-17T10:50:26.619Z,6.00
2018-10-17T10:52:04.390Z,7.20
2018-10-17T10:53:44.676Z,7.60
2018-10-17T10:55:22.110Z,7.00
2018-10-17T10:56:58.700Z,7.00
2018-10-17T10:58:34.744Z,7.00
2018-10-17T11:00:13.242Z,6.60
2018-10-17T11:01:49.588Z,7.60
2018-10-17T11:03:27.768Z,7.00
2018-10-17T11:05:03.562Z,7.20
2018-10-17T11:06:39.079Z,5.40
2018-10-17T11:08:15.802Z,8.80
2018-10-17T11:09:53.663Z,8.00
2018-10-17T11:11:30.040Z,6.00
2018-10-17T11:13:05.421Z,7.60
2018-10-17T11:14:43.121Z,7.40
2018-10-17T11:16:21.798Z,7.00
2018-10-17T11:18:00.516Z,6.80
2018-10-17T11:19:38.320Z,6.60
2018-10-17T11:21:15.497Z,7.00
2018-10-17T11:22:51.382Z,7.80
2018-10-17T11:24:27.644Z,4.00
2018-10-17T11:26:05.762Z,8.40
2018-10-17T11:27:42.071Z,8.00
2018-10-17T11:29:20.519Z,7.40
2018-10-17T11:30:59.915Z,8.00
2018-10-17T11:34:19.329Z,7.00
2018-10-17T11:35:58.505Z,8.20
2018-10-17T11:37:35.503Z,7.00
2018-10-17T11:39:14.070Z,7.40
2018-10-17T11:40:53.916Z,8.00
2018-10-17T11:42:31.041Z,8.20
2018-10-17T11:44:11.743Z,9.00
2018-10-17T11:45:54.496Z,8.20
2018-10-17T11:47:30.352Z,6.00
2018-10-17T11:49:08.307Z,8.20
2018-10-17T11:50:54.707Z,9.40
2018-10-17T11:52:34.357Z,9.20
2018-10-17T11:54:10.279Z,10.20
2018-10-17T11:55:47.333Z,9.40
2018-10-17T11:57:24.618Z,9.00
2018-10-17T11:59:02.085Z,7.40
2018-10-17T12:00:40.254Z,6.00
2018-10-17T12:02:16.257Z,8.00
2018-10-17T12:03:56.043Z,6.00
2018-10-17T12:05:34.218Z,8.20
2018-10-17T12:07:11.520Z,8.00
2018-10-17T12:08:46.683Z,10.00
2018-10-17T12:10:22.053Z,7.20
2018-10-17T12:11:58.186Z,7.40
2018-10-17T12:13:33.945Z,8.40
2018-10-17T12:15:13.705Z,8.60
2018-10-17T12:16:49.609Z,7.80
2018-10-17T12:18:25.590Z,9.20
2018-10-17T12:20:02.763Z,7.40
2018-10-17T12:21:38.592Z,10.40
2018-10-17T12:23:18.213Z,7.20
2018-10-17T12:25:00.072Z,9.00
2018-10-17T12:26:37.730Z,9.20
2018-10-17T12:28:14.551Z,8.40
2018-10-17T12:29:50.119Z,11.00
2018-10-17T12:31:34.198Z,12.40
2018-10-17T12:33:11.617Z,9.20
2018-10-17T12:34:49.126Z,8.40
2018-10-17T12:39:06.975Z,9.00
2018-10-17T12:40:43.804Z,8.20
2018-10-17T12:42:22.290Z,10.80
2018-10-17T12:44:01.776Z,10.20
2018-10-17T12:45:37.357Z,8.40
2018-10-17T12:47:13.066Z,9.60
2018-10-17T12:48:50.278Z,10.00
2018-10-17T12:50:28.660Z,10.20
2018-10-17T12:52:06.537Z,8.20
2018-10-17T12:53:42.792Z,10.80
2018-10-17T12:55:20.539Z,10.60
2018-10-17T12:56:57.234Z,8.00
2018-10-17T12:58:33.691Z,10.00
2018-10-17T13:00:14.553Z,9.00
2018-10-17T13:01:51.128Z,6.80
2018-10-17T13:03:28.650Z,9.60
2018-10-17T13:05:05.448Z,9.60
2018-10-17T13:06:44.482Z,9.80
2018-10-17T13:08:21.690Z,9.60
2018-10-17T13:09:57.733Z,7.60
2018-10-17T13:11:34.645Z,10.00
2018-10-17T13:13:11.363Z,7.20
2018-10-17T13:14:47.279Z,11.00
2018-10-17T13:16:23.059Z,9.60
2018-10-17T13:19:42.575Z,8.20
2018-10-17T13:21:18.826Z,10.00
2018-10-17T13:22:54.366Z,9.00
2018-10-17T13:24:30.691Z,8.80
2018-10-17T13:26:06.873Z,8.20
2018-10-17T13:27:50.895Z,9.80
2018-10-17T13:29:27.947Z,9.60
2018-10-17T13:31:18.049Z,9.40
2018-10-17T13:32:57.361Z,8.80
2018-10-17T13:34:34.295Z,8.20
2018-10-17T13:36:15.049Z,9.60
2018-10-17T13:37:51.024Z,9.40
2018-10-17T13:39:27.698Z,10.80
2018-10-17T13:41:03.271Z,9.60
2018-10-17T13:42:42.249Z,10.00
2018-10-17T13:44:18.896Z,9.20
2018-10-17T13:45:58.804Z,10.20
2018-10-17T13:47:38.098Z,7.60
2018-10-17T13:49:18.464Z,10.20
2018-10-17T13:50:54.436Z,9.00
2018-10-17T13:52:33.359Z,10.40
2018-10-17T13:54:12.692Z,8.20
2018-10-17T13:56:03.333Z,9.80
2018-10-17T13:57:41.104Z,9.80
2018-10-17T13:59:19.150Z,10.00
2018-10-17T14:00:59.292Z,9.00
2018-10-17T14:02:37.959Z,10.00
2018-10-17T14:04:17.171Z,9.00
2018-10-17T14:05:54.901Z,10.20
2018-10-17T14:07:37.851Z,9.80
2018-10-17T14:09:19.001Z,9.20
2018-10-17T14:10:57.878Z,10.40
2018-10-17T14:12:39.242Z,6.80
2018-10-17T14:14:17.425Z,10.80
2018-10-17T14:15:56.063Z,9.60
2018-10-17T14:17:32.198Z,10.60
2018-10-17T14:19:07.680Z,9.80
2018-10-17T14:20:43.979Z,10.40
2018-10-17T14:22:21.723Z,10.60
2018-10-17T14:23:58.766Z,11.40
2018-10-17T14:25:34.813Z,10.60
2018-10-17T14:27:11.412Z,10.00
2018-10-17T14:28:48.968Z,12.00
2018-10-17T14:30:24.892Z,10.00
2018-10-17T14:34:00.640Z,10.60
2018-10-17T14:35:38.235Z,10.00
2018-10-17T14:37:15.049Z,10.60
2018-10-17T14:38:52.402Z,10.00
2018-10-17T14:40:31.681Z,10.00
2018-10-17T14:42:11.416Z,8.20
2018-10-17T14:43:48.554Z,9.60
2018-10-17T14:45:24.462Z,10.00
2018-10-17T14:47:01.099Z,6.00
2018-10-17T14:48:38.297Z,6.40
2018-10-17T14:50:18.019Z,10.60
2018-10-17T14:51:55.216Z,9.00
2018-10-17T14:53:32.287Z,8.40
2018-10-17T14:55:11.569Z,10.00
2018-10-17T14:56:48.546Z,8.40
2018-10-17T14:58:23.987Z,9.00
2018-10-17T15:00:03.333Z,10.00
2018-10-17T15:01:42.584Z,9.80
2018-10-17T15:05:28.078Z,9.20
2018-10-17T15:09:04.049Z,9.80
2018-10-17T15:11:04.552Z,10.40
2018-10-17T15:12:48.386Z,4.80
2018-10-17T15:14:26.770Z,10.00
2018-10-17T15:18:07.284Z,9.20
2018-10-17T15:19:46.558Z,10.00
2018-10-17T15:21:27.259Z,8.40
2018-10-17T15:23:07.992Z,9.20
2018-10-17T15:24:48.026Z,5.80
2018-10-17T15:26:24.273Z,10.40
2018-10-17T15:28:02.958Z,9.60
2018-10-17T15:29:45.985Z,10.00
2018-10-17T15:31:25.935Z,9.60
2018-10-17T15:33:07.794Z,9.80
2018-10-17T15:34:48.302Z,10.20
2018-10-17T15:36:26.086Z,10.20
2018-10-17T15:38:02.046Z,10.40
2018-10-17T15:39:40.610Z,11.00
2018-10-17T15:41:18.769Z,9.00
2018-10-17T15:42:57.829Z,8.40
2018-10-17T15:44:36.840Z,10.20
2018-10-17T15:46:24.408Z,10.80
2018-10-17T15:48:05.599Z,9.60
2018-10-17T15:49:46.130Z,9.80
2018-10-17T15:51:24.214Z,9.20
2018-10-17T15:53:02.456Z,8.80
2018-10-17T15:54:39.358Z,10.60
2018-10-17T15:56:17.445Z,10.20
2018-10-17T15:57:59.625Z,10.40
2018-10-17T15:59:37.346Z,9.20
2018-10-17T16:01:18.767Z,8.00
2018-10-17T16:02:57.053Z,10.20
2018-10-17T16:04:33.997Z,8.80
2018-10-17T16:08:07.169Z,10.40
2018-10-17T16:09:44.415Z,10.60
2018-10-17T16:11:30.106Z,9.00
2018-10-17T16:13:09.055Z,9.20
2018-10-17T16:14:52.672Z,8.20
2018-10-17T16:16:34.019Z,9.80
2018-10-17T16:18:14.269Z,6.40
2018-10-17T16:19:55.143Z,8.80
2018-10-17T16:21:38.449Z,8.80
2018-10-17T16:23:23.655Z,7.60
2018-10-17T16:25:08.482Z,9.00
2018-10-17T16:26:47.618Z,11.00
2018-10-17T16:30:14.751Z,11.00
2018-10-17T16:31:51.837Z,9.60
2018-10-17T16:33:35.158Z,9.00
2018-10-17T16:35:16.801Z,10.00
2018-10-17T16:37:00.214Z,7.00
2018-10-17T16:38:47.153Z,10.80
2018-10-17T16:40:24.918Z,9.20
2018-10-17T16:42:19.853Z,8.20
2018-10-17T16:44:01.639Z,7.40
2018-10-17T16:45:41.884Z,9.00
2018-10-17T16:47:23.104Z,9.00
2018-10-17T16:49:04.814Z,11.00
2018-10-17T16:50:44.647Z,9.40
2018-10-17T16:52:23.963Z,10.00
2018-10-17T16:54:01.348Z,7.20
2018-10-17T16:55:39.469Z,9.80
2018-10-17T16:57:19.091Z,10.00
2018-10-17T17:01:34.627Z,10.00
2018-10-17T17:03:21.581Z,10.80
2018-10-17T17:05:03.543Z,8.80
2018-10-17T17:07:51.676Z,10.60
2018-10-17T17:09:32.015Z,8.80
2018-10-17T17:11:13.388Z,10.80
2018-10-17T17:12:51.265Z,4.40
2018-10-17T17:14:29.362Z,10.20
2018-10-17T17:16:13.599Z,9.00
2018-10-17T17:19:49.692Z,11.00
2018-10-17T17:21:34.009Z,9.00
2018-10-17T17:23:14.571Z,9.60
2018-10-17T17:24:55.841Z,10.60
2018-10-17T17:26:52.783Z,11.80
2018-10-17T17:28:35.642Z,11.00
2018-10-17T17:30:22.662Z,9.40
2018-10-17T17:32:08.505Z,10.20
2018-10-17T17:33:55.151Z,12.00
2018-10-17T17:35:33.352Z,12.00
2018-10-17T17:37:12.935Z,8.40
2018-10-17T17:38:55.802Z,9.20
2018-10-17T17:40:37.235Z,13.00
2018-10-17T17:42:19.530Z,10.60
2018-10-17T17:44:02.629Z,12.40
2018-10-17T17:45:41.666Z,12.20
2018-10-17T17:47:21.290Z,12.20
2018-10-17T17:49:10.546Z,15.00
2018-10-17T17:50:54.610Z,12.00
2018-10-17T17:52:33.233Z,12.00
2018-10-17T17:54:14.238Z,11.60
2018-10-17T17:55:54.935Z,11.20
2018-10-17T18:00:43.736Z,15.00
2018-10-17T18:02:19.772Z,10.20
2018-10-17T18:03:55.873Z,14.00
2018-10-17T18:05:32.991Z,14.20
2018-10-17T18:07:15.726Z,15.20
2018-10-17T18:08:54.303Z,12.00
2018-10-17T18:10:31.663Z,15.40
2018-10-17T18:12:10.368Z,14.60
2018-10-17T18:13:52.326Z,15.00
2018-10-17T18:17:25.511Z,16.40
2018-10-17T18:19:12.363Z,15.00
2018-10-17T18:21:17.283Z,13.00
2018-10-17T18:23:01.852Z,16.40
2018-10-17T18:24:42.353Z,13.20
2018-10-17T18:26:21.158Z,13.00
2018-10-17T18:27:57.963Z,17.40
2018-10-17T18:29:34.939Z,15.40
2018-10-17T18:31:11.117Z,17.60
2018-10-17T18:32:48.693Z,15.80
2018-10-17T18:34:25.859Z,17.20
2018-10-17T18:36:03.953Z,18.40
2018-10-17T18:37:42.538Z,16.80
2018-10-17T18:39:22.413Z,16.40
2018-10-17T18:41:17.769Z,19.60
2018-10-17T18:43:12.839Z,15.80
2018-10-17T18:44:49.102Z,17.20
2018-10-17T18:46:38.815Z,22.80
2018-10-17T18:48:18.366Z,18.20
2018-10-17T18:49:58.394Z,13.40
2018-10-17T18:51:35.402Z,22.20
2018-10-17T18:53:16.033Z,21.40
2018-10-17T18:54:52.511Z,19.20
2018-10-17T18:58:26.708Z,16.60
2018-10-17T19:00:06.515Z,18.60
2018-10-17T19:01:43.501Z,20.80
2018-10-17T19:05:16.913Z,25.40
2018-10-17T19:06:53.896Z,15.80
2018-10-17T19:08:36.564Z,20.20
2018-10-17T19:10:15.363Z,18.40
2018-10-17T19:11:54.837Z,18.80
2018-10-17T19:13:31.713Z,21.20
2018-10-17T19:15:09.169Z,23.60
2018-10-17T19:16:45.092Z,21.00
2018-10-17T19:18:21.340Z,23.00
2018-10-17T19:19:59.359Z,20.40
2018-10-17T19:21:37.278Z,23.60
2018-10-17T19:23:12.386Z,25.00
2018-10-17T19:24:48.179Z,23.60
2018-10-17T19:26:25.092Z,24.20
2018-10-17T19:28:01.616Z,24.20
2018-10-17T19:29:41.686Z,26.40
2018-10-17T19:31:19.954Z,24.20
2018-10-17T19:32:59.736Z,23.20
2018-10-17T19:34:35.720Z,23.00
2018-10-17T19:36:12.985Z,24.20
2018-10-17T19:37:49.555Z,24.00
2018-10-17T19:39:26.921Z,27.40
2018-10-17T19:41:04.081Z,23.60
2018-10-17T19:42:41.098Z,25.20
2018-10-17T19:44:19.313Z,26.20
2018-10-17T19:45:55.240Z,27.80
2018-10-17T19:47:33.851Z,27.40
2018-10-17T19:49:10.634Z,23.80
2018-10-17T19:50:46.833Z,28.00
2018-10-17T19:52:24.313Z,27.40
2018-10-17T19:54:09.240Z,24.80
2018-10-17T19:55:44.645Z,28.60
2018-10-17T19:57:20.339Z,28.20
2018-10-17T19:59:02.676Z,20.20
2018-10-17T20:00:42.090Z,27.80
2018-10-17T20:02:19.622Z,26.40
2018-10-17T20:04:02.460Z,28.00
2018-10-17T20:05:43.669Z,27.40
2018-10-17T20:07:21.394Z,26.60
2018-10-17T20:08:59.975Z,17.00
2018-10-17T20:10:36.050Z,28.20
2018-10-17T20:12:12.534Z,24.20
2018-10-17T20:13:49.802Z,17.60
2018-10-17T20:15:28.899Z,26.00
2018-10-17T20:17:12.642Z,27.60
2018-10-17T20:18:49.800Z,27.80
2018-10-17T20:20:38.387Z,29.40
2018-10-17T20:22:21.477Z,27.80
2018-10-17T20:23:57.562Z,31.00
2018-10-17T20:25:37.745Z,29.20
2018-10-17T20:27:15.636Z,29.00
2018-10-17T20:28:56.214Z,15.60
2018-10-17T20:30:33.988Z,28.80
2018-10-17T20:32:12.690Z,31.80
2018-10-17T20:33:48.861Z,33.60
2018-10-17T20:35:27.288Z,31.00
2018-10-17T20:37:04.002Z,29.60
2018-10-17T20:38:39.363Z,31.20
2018-10-17T20:40:14.388Z,29.80
2018-10-17T20:41:50.774Z,31.20
2018-10-17T20:43:25.748Z,30.40
2018-10-17T20:45:05.696Z,28.60
2018-10-17T20:46:42.398Z,29.80
2018-10-17T20:48:21.515Z,31.60
2018-10-17T20:50:05.336Z,31.20
2018-10-17T20:51:40.563Z,31.00
2018-10-17T20:53:17.721Z,32.80
2018-10-17T20:54:55.387Z,30.80
2018-10-17T20:56:31.406Z,31.20
2018-10-17T20:58:06.782Z,31.20
2018-10-17T20:59:42.515Z,30.20
2018-10-17T21:01:19.359Z,29.80
2018-10-17T21:02:55.245Z,30.60
2018-10-17T21:04:37.332Z,32.40
2018-10-17T21:06:15.608Z,28.20
2018-10-17T21:07:51.484Z,32.40
2018-10-17T21:09:33.005Z,33.00
2018-10-17T21:11:09.225Z,31.40
2018-10-17T21:12:48.489Z,32.20
2018-10-17T21:14:30.585Z,33.00
2018-10-17T21:16:07.527Z,32.00
2018-10-17T21:17:43.734Z,31.60
2018-10-17T21:19:20.489Z,30.20
2018-10-17T21:20:57.468Z,32.00
2018-10-17T21:22:33.787Z,28.60
2018-10-17T21:24:10.884Z,32.00
2018-10-17T21:25:46.571Z,33.20
2018-10-17T21:27:21.684Z,33.60
2018-10-17T21:29:00.427Z,35.20
2018-10-17T21:30:44.282Z,32.40
2018-10-17T21:32:20.946Z,32.40
2018-10-17T21:33:58.737Z,34.20
2018-10-17T21:37:18.483Z,31.80
2018-10-17T21:38:55.524Z,34.20
2018-10-17T21:40:32.260Z,34.00
2018-10-17T21:42:08.548Z,34.00
2018-10-17T21:43:45.943Z,33.40
2018-10-17T21:45:29.174Z,32.20
2018-10-17T21:47:12.839Z,37.00
2018-10-17T21:48:49.012Z,34.40
2018-10-17T21:50:24.511Z,37.00
2018-10-17T21:52:06.120Z,33.60
2018-10-17T21:53:42.644Z,36.20
2018-10-17T21:55:20.743Z,33.20
2018-10-17T21:56:58.051Z,35.40
2018-10-17T21:58:34.338Z,34.60
2018-10-17T22:00:28.680Z,34.00
2018-10-17T22:02:07.968Z,33.60
2018-10-17T22:03:44.333Z,32.60